sensor_id;sensor_type;location;lat;lon;timestamp;P1;durP1;ratioP1;P2;durP2;ratioP2
7573;SDS011;3828;48.922;9.116;2022-09-13T00:00:47;4.40;;;3.00;;
7573;SDS011;3828;48.922;9.116;2022-09-13T00:03:15;3.20;;;3.00;;
7573;SDS011;3828;48.922;9.116;2022-09-13T00:05:57;2.97;;;2.47;;
7573;SDS011;3828;48.922;9.116;2022-09-13T00:08:32;3.23;;;3.00;;
7573;SDS011;3828;48.922;9.116;2022-09-13T00:10:58;2.93;;;2.67;;
7573;SDS011;3828;48.922;9.116;2022-09-13T00:13:25;2.90;;;2.70;;
7573;SDS011;3828;48.922;9.116;2022-09-13T00:15:52;2.50;;;2.30;;
7573;SDS011;3828;48.922;9.116;2022-09-13T00:18:19;3.47;;;3.23;;
7573;SDS011;3828;48.922;9.116;2022-09-13T00:20:45;5.80;;;3.20;;
7573;SDS011;3828;48.922;9.116;2022-09-13T00:23:14;4.80;;;3.20;;
7573;SDS011;3828;48.922;9.116;2022-09-13T00:25:41;3.40;;;3.00;;
7573;SDS011;3828;48.922;9.116;2022-09-13T00:28:07;3.00;;;2.70;;
7573;SDS011;3828;48.922;9.116;2022-09-13T00:30:34;3.53;;;3.23;;
7573;SDS011;3828;48.922;9.116;2022-09-13T00:33:01;3.87;;;2.57;;
7573;SDS011;3828;48.922;9.116;2022-09-13T00:35:28;3.00;;;2.73;;
7573;SDS011;3828;48.922;9.116;2022-09-13T00:37:57;2.97;;;2.77;;
7573;SDS011;3828;48.922;9.116;2022-09-13T00:40:26;4.70;;;2.93;;
7573;SDS011;3828;48.922;9.116;2022-09-13T00:42:54;3.37;;;3.03;;
7573;SDS011;3828;48.922;9.116;2022-09-13T00:45:21;3.10;;;2.90;;
7573;SDS011;3828;48.922;9.116;2022-09-13T00:47:49;4.30;;;2.93;;
7573;SDS011;3828;48.922;9.116;2022-09-13T00:50:21;3.87;;;3.03;;
7573;SDS011;3828;48.922;9.116;2022-09-13T00:52:54;4.13;;;2.73;;
7573;SDS011;3828;48.922;9.116;2022-09-13T00:55:25;3.63;;;3.10;;
7573;SDS011;3828;48.922;9.116;2022-09-13T00:57:56;3.10;;;2.80;;
7573;SDS011;3828;48.922;9.116;2022-09-13T01:00:26;3.37;;;3.10;;
7573;SDS011;3828;48.922;9.116;2022-09-13T01:02:54;3.70;;;3.40;;
7573;SDS011;3828;48.922;9.116;2022-09-13T01:05:28;3.30;;;3.00;;
7573;SDS011;3828;48.922;9.116;2022-09-13T01:07:58;3.83;;;2.93;;
7573;SDS011;3828;48.922;9.116;2022-09-13T01:10:27;2.90;;;2.70;;
7573;SDS011;3828;48.922;9.116;2022-09-13T01:12:56;3.40;;;3.10;;
7573;SDS011;3828;48.922;9.116;2022-09-13T01:15:28;2.90;;;2.70;;
7573;SDS011;3828;48.922;9.116;2022-09-13T01:17:55;3.13;;;2.93;;
7573;SDS011;3828;48.922;9.116;2022-09-13T01:20:24;2.90;;;2.70;;
7573;SDS011;3828;48.922;9.116;2022-09-13T01:23:05;2.60;;;2.40;;
7573;SDS011;3828;48.922;9.116;2022-09-13T01:25:57;2.97;;;2.77;;
7573;SDS011;3828;48.922;9.116;2022-09-13T01:29:03;2.77;;;2.57;;
7573;SDS011;3828;48.922;9.116;2022-09-13T01:31:42;3.23;;;2.93;;
7573;SDS011;3828;48.922;9.116;2022-09-13T01:34:19;3.27;;;2.97;;
7573;SDS011;3828;48.922;9.116;2022-09-13T01:36:57;3.20;;;3.00;;
7573;SDS011;3828;48.922;9.116;2022-09-13T01:39:45;3.33;;;2.80;;
7573;SDS011;3828;48.922;9.116;2022-09-13T01:42:25;3.80;;;3.07;;
7573;SDS011;3828;48.922;9.116;2022-09-13T01:45:09;3.00;;;2.80;;
7573;SDS011;3828;48.922;9.116;2022-09-13T01:47:49;3.60;;;3.30;;
7573;SDS011;3828;48.922;9.116;2022-09-13T01:50:21;3.83;;;3.53;;
7573;SDS011;3828;48.922;9.116;2022-09-13T01:52:59;3.40;;;3.10;;
7573;SDS011;3828;48.922;9.116;2022-09-13T01:55:31;3.40;;;3.20;;
7573;SDS011;3828;48.922;9.116;2022-09-13T01:58:08;3.37;;;3.07;;
7573;SDS011;3828;48.922;9.116;2022-09-13T02:00:47;3.40;;;3.20;;
7573;SDS011;3828;48.922;9.116;2022-09-13T02:06:18;4.17;;;3.20;;
7573;SDS011;3828;48.922;9.116;2022-09-13T02:08:47;3.33;;;2.83;;
7573;SDS011;3828;48.922;9.116;2022-09-13T02:11:17;3.60;;;3.20;;
7573;SDS011;3828;48.922;9.116;2022-09-13T02:13:47;6.20;;;3.00;;
7573;SDS011;3828;48.922;9.116;2022-09-13T02:16:20;3.17;;;2.93;;
7573;SDS011;3828;48.922;9.116;2022-09-13T02:18:55;3.10;;;2.90;;
7573;SDS011;3828;48.922;9.116;2022-09-13T02:21:28;3.60;;;3.30;;
7573;SDS011;3828;48.922;9.116;2022-09-13T02:24:04;3.43;;;3.13;;
7573;SDS011;3828;48.922;9.116;2022-09-13T02:26:33;3.17;;;2.87;;
7573;SDS011;3828;48.922;9.116;2022-09-13T02:29:03;3.70;;;3.40;;
7573;SDS011;3828;48.922;9.116;2022-09-13T02:31:35;2.93;;;2.73;;
7573;SDS011;3828;48.922;9.116;2022-09-13T02:34:11;4.47;;;3.20;;
7573;SDS011;3828;48.922;9.116;2022-09-13T02:36:45;3.53;;;3.23;;
7573;SDS011;3828;48.922;9.116;2022-09-13T02:39:15;3.60;;;3.30;;
7573;SDS011;3828;48.922;9.116;2022-09-13T02:41:45;3.07;;;2.87;;
7573;SDS011;3828;48.922;9.116;2022-09-13T02:44:18;4.70;;;3.20;;
7573;SDS011;3828;48.922;9.116;2022-09-13T02:46:58;5.93;;;3.77;;
7573;SDS011;3828;48.922;9.116;2022-09-13T02:49:36;3.47;;;3.17;;
7573;SDS011;3828;48.922;9.116;2022-09-13T02:52:15;4.10;;;3.23;;
7573;SDS011;3828;48.922;9.116;2022-09-13T02:54:49;5.20;;;3.60;;
7573;SDS011;3828;48.922;9.116;2022-09-13T02:57:25;4.50;;;3.50;;
7573;SDS011;3828;48.922;9.116;2022-09-13T02:59:56;6.23;;;3.47;;
7573;SDS011;3828;48.922;9.116;2022-09-13T03:02:24;4.73;;;3.83;;
7573;SDS011;3828;48.922;9.116;2022-09-13T03:04:58;3.63;;;3.20;;
7573;SDS011;3828;48.922;9.116;2022-09-13T03:07:25;4.27;;;3.90;;
7573;SDS011;3828;48.922;9.116;2022-09-13T03:09:53;6.47;;;3.17;;
7573;SDS011;3828;48.922;9.116;2022-09-13T03:12:28;6.47;;;3.20;;
7573;SDS011;3828;48.922;9.116;2022-09-13T03:15:09;4.20;;;3.47;;
7573;SDS011;3828;48.922;9.116;2022-09-13T03:17:48;3.30;;;3.00;;
7573;SDS011;3828;48.922;9.116;2022-09-13T03:20:29;3.93;;;3.63;;
7573;SDS011;3828;48.922;9.116;2022-09-13T03:26:11;3.50;;;3.20;;
7573;SDS011;3828;48.922;9.116;2022-09-13T03:28:52;4.03;;;3.73;;
7573;SDS011;3828;48.922;9.116;2022-09-13T03:31:29;4.20;;;3.13;;
7573;SDS011;3828;48.922;9.116;2022-09-13T03:34:02;3.37;;;3.07;;
7573;SDS011;3828;48.922;9.116;2022-09-13T03:36:36;4.23;;;3.53;;
7573;SDS011;3828;48.922;9.116;2022-09-13T03:39:10;3.73;;;3.33;;
7573;SDS011;3828;48.922;9.116;2022-09-13T03:41:45;3.90;;;3.60;;
7573;SDS011;3828;48.922;9.116;2022-09-13T03:44:15;3.63;;;3.33;;
7573;SDS011;3828;48.922;9.116;2022-09-13T03:46:47;3.80;;;3.50;;
7573;SDS011;3828;48.922;9.116;2022-09-13T03:49:18;4.00;;;3.67;;
7573;SDS011;3828;48.922;9.116;2022-09-13T03:51:48;4.60;;;3.93;;
7573;SDS011;3828;48.922;9.116;2022-09-13T03:54:18;4.27;;;3.47;;
7573;SDS011;3828;48.922;9.116;2022-09-13T03:59:36;3.80;;;3.40;;
7573;SDS011;3828;48.922;9.116;2022-09-13T04:02:04;3.53;;;3.03;;
7573;SDS011;3828;48.922;9.116;2022-09-13T04:04:36;4.20;;;3.80;;
7573;SDS011;3828;48.922;9.116;2022-09-13T04:07:04;3.57;;;3.37;;
7573;SDS011;3828;48.922;9.116;2022-09-13T04:09:31;3.43;;;3.13;;
7573;SDS011;3828;48.922;9.116;2022-09-13T04:11:58;3.83;;;3.53;;
7573;SDS011;3828;48.922;9.116;2022-09-13T04:14:24;3.73;;;3.40;;
7573;SDS011;3828;48.922;9.116;2022-09-13T04:16:52;4.17;;;3.60;;
7573;SDS011;3828;48.922;9.116;2022-09-13T04:19:19;4.67;;;3.40;;
7573;SDS011;3828;48.922;9.116;2022-09-13T04:21:47;4.40;;;3.80;;
7573;SDS011;3828;48.922;9.116;2022-09-13T04:24:16;7.67;;;3.47;;
7573;SDS011;3828;48.922;9.116;2022-09-13T04:26:43;4.43;;;4.03;;
7573;SDS011;3828;48.922;9.116;2022-09-13T04:29:13;4.77;;;3.87;;
7573;SDS011;3828;48.922;9.116;2022-09-13T04:31:40;4.10;;;3.70;;
7573;SDS011;3828;48.922;9.116;2022-09-13T04:34:07;4.20;;;3.80;;
7573;SDS011;3828;48.922;9.116;2022-09-13T04:36:35;4.37;;;3.97;;
7573;SDS011;3828;48.922;9.116;2022-09-13T04:39:02;4.80;;;4.00;;
7573;SDS011;3828;48.922;9.116;2022-09-13T04:41:31;4.33;;;3.93;;
7573;SDS011;3828;48.922;9.116;2022-09-13T04:44:01;5.63;;;4.23;;
7573;SDS011;3828;48.922;9.116;2022-09-13T04:46:28;4.67;;;3.73;;
7573;SDS011;3828;48.922;9.116;2022-09-13T04:48:56;6.30;;;4.20;;
7573;SDS011;3828;48.922;9.116;2022-09-13T04:51:24;5.43;;;3.90;;
7573;SDS011;3828;48.922;9.116;2022-09-13T04:53:52;3.63;;;3.30;;
7573;SDS011;3828;48.922;9.116;2022-09-13T04:56:20;5.43;;;4.93;;
7573;SDS011;3828;48.922;9.116;2022-09-13T04:58:49;3.80;;;3.50;;
7573;SDS011;3828;48.922;9.116;2022-09-13T05:01:20;4.77;;;4.33;;
7573;SDS011;3828;48.922;9.116;2022-09-13T05:03:49;3.90;;;3.60;;
7573;SDS011;3828;48.922;9.116;2022-09-13T05:06:17;5.47;;;4.97;;
7573;SDS011;3828;48.922;9.116;2022-09-13T05:08:48;4.07;;;3.73;;
7573;SDS011;3828;48.922;9.116;2022-09-13T05:11:19;3.50;;;3.20;;
7573;SDS011;3828;48.922;9.116;2022-09-13T05:13:50;4.13;;;3.80;;
7573;SDS011;3828;48.922;9.116;2022-09-13T05:16:19;4.10;;;3.80;;
7573;SDS011;3828;48.922;9.116;2022-09-13T05:18:46;3.87;;;3.57;;
7573;SDS011;3828;48.922;9.116;2022-09-13T05:21:13;5.50;;;3.30;;
7573;SDS011;3828;48.922;9.116;2022-09-13T05:23:40;3.87;;;3.57;;
7573;SDS011;3828;48.922;9.116;2022-09-13T05:26:07;5.43;;;3.73;;
7573;SDS011;3828;48.922;9.116;2022-09-13T05:28:34;3.80;;;3.43;;
7573;SDS011;3828;48.922;9.116;2022-09-13T05:31:04;3.80;;;3.47;;
7573;SDS011;3828;48.922;9.116;2022-09-13T05:33:32;5.57;;;3.90;;
7573;SDS011;3828;48.922;9.116;2022-09-13T05:36:01;6.73;;;3.37;;
7573;SDS011;3828;48.922;9.116;2022-09-13T05:38:28;4.47;;;3.57;;
7573;SDS011;3828;48.922;9.116;2022-09-13T05:40:56;3.30;;;3.10;;
7573;SDS011;3828;48.922;9.116;2022-09-13T05:43:24;4.13;;;3.80;;
7573;SDS011;3828;48.922;9.116;2022-09-13T05:45:58;4.47;;;3.53;;
7573;SDS011;3828;48.922;9.116;2022-09-13T05:48:28;4.07;;;3.67;;
7573;SDS011;3828;48.922;9.116;2022-09-13T05:50:55;5.73;;;3.90;;
7573;SDS011;3828;48.922;9.116;2022-09-13T05:53:21;4.20;;;3.80;;
7573;SDS011;3828;48.922;9.116;2022-09-13T05:55:48;4.37;;;3.97;;
7573;SDS011;3828;48.922;9.116;2022-09-13T05:58:15;4.63;;;3.93;;
7573;SDS011;3828;48.922;9.116;2022-09-13T06:00:42;4.33;;;3.93;;
7573;SDS011;3828;48.922;9.116;2022-09-13T06:03:09;4.87;;;4.03;;
7573;SDS011;3828;48.922;9.116;2022-09-13T06:05:37;4.30;;;3.97;;
7573;SDS011;3828;48.922;9.116;2022-09-13T06:08:03;5.30;;;3.67;;
7573;SDS011;3828;48.922;9.116;2022-09-13T06:10:30;5.40;;;3.90;;
7573;SDS011;3828;48.922;9.116;2022-09-13T06:12:57;4.23;;;3.60;;
7573;SDS011;3828;48.922;9.116;2022-09-13T06:15:24;4.83;;;3.90;;
7573;SDS011;3828;48.922;9.116;2022-09-13T06:17:51;6.03;;;5.43;;
7573;SDS011;3828;48.922;9.116;2022-09-13T06:20:17;5.70;;;4.20;;
7573;SDS011;3828;48.922;9.116;2022-09-13T06:22:47;4.80;;;3.67;;
7573;SDS011;3828;48.922;9.116;2022-09-13T06:25:14;7.13;;;3.83;;
7573;SDS011;3828;48.922;9.116;2022-09-13T06:27:41;4.50;;;4.10;;
7573;SDS011;3828;48.922;9.116;2022-09-13T06:30:08;4.23;;;3.83;;
7573;SDS011;3828;48.922;9.116;2022-09-13T06:32:37;5.90;;;4.30;;
7573;SDS011;3828;48.922;9.116;2022-09-13T06:35:04;4.13;;;3.73;;
7573;SDS011;3828;48.922;9.116;2022-09-13T06:37:31;4.37;;;3.97;;
7573;SDS011;3828;48.922;9.116;2022-09-13T06:39:59;4.87;;;4.50;;
7573;SDS011;3828;48.922;9.116;2022-09-13T06:42:27;4.90;;;4.30;;
7573;SDS011;3828;48.922;9.116;2022-09-13T06:44:53;3.97;;;3.57;;
7573;SDS011;3828;48.922;9.116;2022-09-13T06:47:20;4.20;;;3.60;;
7573;SDS011;3828;48.922;9.116;2022-09-13T06:49:47;6.10;;;5.23;;
7573;SDS011;3828;48.922;9.116;2022-09-13T06:52:14;4.97;;;4.50;;
7573;SDS011;3828;48.922;9.116;2022-09-13T06:54:40;4.23;;;3.83;;
7573;SDS011;3828;48.922;9.116;2022-09-13T06:57:09;5.47;;;3.57;;
7573;SDS011;3828;48.922;9.116;2022-09-13T06:59:35;5.33;;;4.67;;
7573;SDS011;3828;48.922;9.116;2022-09-13T07:02:02;3.80;;;3.40;;
7573;SDS011;3828;48.922;9.116;2022-09-13T07:04:29;5.33;;;4.63;;
7573;SDS011;3828;48.922;9.116;2022-09-13T07:06:56;5.23;;;3.87;;
7573;SDS011;3828;48.922;9.116;2022-09-13T07:09:24;4.93;;;4.47;;
7573;SDS011;3828;48.922;9.116;2022-09-13T07:11:52;4.83;;;4.17;;
7573;SDS011;3828;48.922;9.116;2022-09-13T07:14:21;9.27;;;4.43;;
7573;SDS011;3828;48.922;9.116;2022-09-13T07:16:49;6.30;;;3.90;;
7573;SDS011;3828;48.922;9.116;2022-09-13T07:19:17;5.67;;;3.93;;
7573;SDS011;3828;48.922;9.116;2022-09-13T07:21:46;5.70;;;4.10;;
7573;SDS011;3828;48.922;9.116;2022-09-13T07:24:14;4.97;;;4.27;;
7573;SDS011;3828;48.922;9.116;2022-09-13T07:26:41;4.07;;;3.73;;
7573;SDS011;3828;48.922;9.116;2022-09-13T07:29:09;5.77;;;3.63;;
7573;SDS011;3828;48.922;9.116;2022-09-13T07:31:39;4.97;;;3.70;;
7573;SDS011;3828;48.922;9.116;2022-09-13T07:34:11;5.27;;;3.63;;
7573;SDS011;3828;48.922;9.116;2022-09-13T07:36:39;8.53;;;3.50;;
7573;SDS011;3828;48.922;9.116;2022-09-13T07:39:06;9.23;;;4.50;;
7573;SDS011;3828;48.922;9.116;2022-09-13T07:41:33;4.37;;;3.60;;
7573;SDS011;3828;48.922;9.116;2022-09-13T07:44:01;5.00;;;3.30;;
7573;SDS011;3828;48.922;9.116;2022-09-13T07:46:29;3.83;;;3.43;;
7573;SDS011;3828;48.922;9.116;2022-09-13T07:48:59;4.30;;;3.10;;
7573;SDS011;3828;48.922;9.116;2022-09-13T07:51:26;7.63;;;3.50;;
7573;SDS011;3828;48.922;9.116;2022-09-13T07:53:55;4.77;;;3.27;;
7573;SDS011;3828;48.922;9.116;2022-09-13T07:56:24;3.10;;;2.80;;
7573;SDS011;3828;48.922;9.116;2022-09-13T07:58:52;5.40;;;3.13;;
7573;SDS011;3828;48.922;9.116;2022-09-13T08:01:21;4.83;;;3.03;;
7573;SDS011;3828;48.922;9.116;2022-09-13T08:03:52;3.83;;;2.57;;
7573;SDS011;3828;48.922;9.116;2022-09-13T08:06:21;5.93;;;2.93;;
7573;SDS011;3828;48.922;9.116;2022-09-13T08:12:15;14.77;;;4.10;;
7573;SDS011;3828;48.922;9.116;2022-09-13T08:14:42;4.57;;;2.80;;
7573;SDS011;3828;48.922;9.116;2022-09-13T08:17:09;5.03;;;3.43;;
7573;SDS011;3828;48.922;9.116;2022-09-13T08:19:35;4.33;;;2.87;;
7573;SDS011;3828;48.922;9.116;2022-09-13T08:22:04;2.90;;;2.60;;
7573;SDS011;3828;48.922;9.116;2022-09-13T08:24:30;4.07;;;2.60;;
7573;SDS011;3828;48.922;9.116;2022-09-13T08:26:57;5.37;;;3.07;;
7573;SDS011;3828;48.922;9.116;2022-09-13T08:29:24;6.40;;;2.73;;
7573;SDS011;3828;48.922;9.116;2022-09-13T08:31:50;4.67;;;2.47;;
7573;SDS011;3828;48.922;9.116;2022-09-13T08:34:17;3.83;;;2.80;;
7573;SDS011;3828;48.922;9.116;2022-09-13T08:36:45;4.10;;;2.83;;
7573;SDS011;3828;48.922;9.116;2022-09-13T08:39:13;2.87;;;2.60;;
7573;SDS011;3828;48.922;9.116;2022-09-13T08:44:41;2.83;;;2.50;;
7573;SDS011;3828;48.922;9.116;2022-09-13T08:47:19;3.03;;;2.70;;
7573;SDS011;3828;48.922;9.116;2022-09-13T08:49:54;2.83;;;2.63;;
7573;SDS011;3828;48.922;9.116;2022-09-13T08:52:27;6.87;;;2.97;;
7573;SDS011;3828;48.922;9.116;2022-09-13T08:55:00;2.87;;;2.57;;
7573;SDS011;3828;48.922;9.116;2022-09-13T08:57:34;2.70;;;2.40;;
7573;SDS011;3828;48.922;9.116;2022-09-13T09:00:10;2.67;;;2.43;;
7573;SDS011;3828;48.922;9.116;2022-09-13T09:02:46;7.83;;;2.70;;
7573;SDS011;3828;48.922;9.116;2022-09-13T09:05:19;3.60;;;2.50;;
7573;SDS011;3828;48.922;9.116;2022-09-13T09:07:48;4.47;;;2.80;;
7573;SDS011;3828;48.922;9.116;2022-09-13T09:10:20;2.73;;;2.17;;
7573;SDS011;3828;48.922;9.116;2022-09-13T09:12:49;3.27;;;2.30;;
7573;SDS011;3828;48.922;9.116;2022-09-13T09:15:20;9.93;;;2.47;;
7573;SDS011;3828;48.922;9.116;2022-09-13T09:17:52;3.70;;;1.97;;
7573;SDS011;3828;48.922;9.116;2022-09-13T09:20:25;2.60;;;2.40;;
7573;SDS011;3828;48.922;9.116;2022-09-13T09:22:57;3.70;;;2.00;;
7573;SDS011;3828;48.922;9.116;2022-09-13T09:25:30;3.90;;;2.20;;
7573;SDS011;3828;48.922;9.116;2022-09-13T09:27:57;2.77;;;1.90;;
7573;SDS011;3828;48.922;9.116;2022-09-13T09:30:24;3.27;;;1.87;;
7573;SDS011;3828;48.922;9.116;2022-09-13T09:33:07;5.73;;;2.10;;
7573;SDS011;3828;48.922;9.116;2022-09-13T09:35:47;1.70;;;1.40;;
7573;SDS011;3828;48.922;9.116;2022-09-13T09:38:26;2.63;;;1.80;;
7573;SDS011;3828;48.922;9.116;2022-09-13T09:41:02;1.87;;;1.60;;
7573;SDS011;3828;48.922;9.116;2022-09-13T09:43:32;3.80;;;1.70;;
7573;SDS011;3828;48.922;9.116;2022-09-13T09:46:02;3.73;;;1.67;;
7573;SDS011;3828;48.922;9.116;2022-09-13T09:48:33;2.20;;;1.87;;
7573;SDS011;3828;48.922;9.116;2022-09-13T09:51:06;4.07;;;2.30;;
7573;SDS011;3828;48.922;9.116;2022-09-13T09:53:36;4.50;;;2.13;;
7573;SDS011;3828;48.922;9.116;2022-09-13T09:56:14;1.80;;;1.60;;
7573;SDS011;3828;48.922;9.116;2022-09-13T09:58:46;1.67;;;1.57;;
7573;SDS011;3828;48.922;9.116;2022-09-13T10:01:15;2.27;;;1.83;;
7573;SDS011;3828;48.922;9.116;2022-09-13T10:03:51;3.33;;;1.77;;
7573;SDS011;3828;48.922;9.116;2022-09-13T10:06:27;2.07;;;1.77;;
7573;SDS011;3828;48.922;9.116;2022-09-13T10:08:56;3.30;;;1.60;;
7573;SDS011;3828;48.922;9.116;2022-09-13T10:11:37;2.80;;;1.73;;
7573;SDS011;3828;48.922;9.116;2022-09-13T10:14:09;4.40;;;1.83;;
7573;SDS011;3828;48.922;9.116;2022-09-13T10:17:00;2.37;;;1.97;;
7573;SDS011;3828;48.922;9.116;2022-09-13T10:19:30;4.67;;;1.50;;
7573;SDS011;3828;48.922;9.116;2022-09-13T10:21:58;3.53;;;2.03;;
7573;SDS011;3828;48.922;9.116;2022-09-13T10:24:27;3.27;;;1.57;;
7573;SDS011;3828;48.922;9.116;2022-09-13T10:26:56;1.60;;;1.50;;
7573;SDS011;3828;48.922;9.116;2022-09-13T10:29:23;2.23;;;1.60;;
7573;SDS011;3828;48.922;9.116;2022-09-13T10:31:52;2.93;;;1.60;;
7573;SDS011;3828;48.922;9.116;2022-09-13T10:34:22;3.23;;;1.60;;
7573;SDS011;3828;48.922;9.116;2022-09-13T10:36:53;3.50;;;1.53;;
7573;SDS011;3828;48.922;9.116;2022-09-13T10:39:23;3.73;;;1.50;;
7573;SDS011;3828;48.922;9.116;2022-09-13T10:41:52;2.37;;;1.30;;
7573;SDS011;3828;48.922;9.116;2022-09-13T10:44:24;3.27;;;1.60;;
7573;SDS011;3828;48.922;9.116;2022-09-13T10:46:55;1.43;;;1.00;;
7573;SDS011;3828;48.922;9.116;2022-09-13T10:49:35;1.10;;;1.03;;
7573;SDS011;3828;48.922;9.116;2022-09-13T10:52:22;3.97;;;1.43;;
7573;SDS011;3828;48.922;9.116;2022-09-13T10:54:55;1.30;;;1.20;;
7573;SDS011;3828;48.922;9.116;2022-09-13T10:57:39;1.53;;;1.40;;
7573;SDS011;3828;48.922;9.116;2022-09-13T11:00:08;0.93;;;0.80;;
7573;SDS011;3828;48.922;9.116;2022-09-13T11:02:47;1.07;;;1.03;;
7573;SDS011;3828;48.922;9.116;2022-09-13T11:05:33;1.43;;;1.33;;
7573;SDS011;3828;48.922;9.116;2022-09-13T11:08:10;2.30;;;1.27;;
7573;SDS011;3828;48.922;9.116;2022-09-13T11:10:59;1.70;;;1.13;;
7573;SDS011;3828;48.922;9.116;2022-09-13T11:13:36;3.97;;;0.90;;
7573;SDS011;3828;48.922;9.116;2022-09-13T11:16:18;2.03;;;1.53;;
7573;SDS011;3828;48.922;9.116;2022-09-13T11:19:06;2.67;;;0.97;;
7573;SDS011;3828;48.922;9.116;2022-09-13T11:21:48;1.23;;;1.13;;
7573;SDS011;3828;48.922;9.116;2022-09-13T11:24:32;1.87;;;1.20;;
7573;SDS011;3828;48.922;9.116;2022-09-13T11:27:13;1.90;;;1.17;;
7573;SDS011;3828;48.922;9.116;2022-09-13T11:29:51;2.90;;;1.27;;
7573;SDS011;3828;48.922;9.116;2022-09-13T11:32:34;2.60;;;1.00;;
7573;SDS011;3828;48.922;9.116;2022-09-13T11:35:26;1.23;;;0.90;;
7573;SDS011;3828;48.922;9.116;2022-09-13T11:38:03;1.43;;;1.10;;
7573;SDS011;3828;48.922;9.116;2022-09-13T11:40:42;1.30;;;1.10;;
7573;SDS011;3828;48.922;9.116;2022-09-13T11:46:13;1.70;;;0.80;;
7573;SDS011;3828;48.922;9.116;2022-09-13T11:49:03;1.60;;;1.40;;
7573;SDS011;3828;48.922;9.116;2022-09-13T11:51:49;4.20;;;1.33;;
7573;SDS011;3828;48.922;9.116;2022-09-13T11:54:31;1.27;;;0.93;;
7573;SDS011;3828;48.922;9.116;2022-09-13T11:57:06;2.30;;;1.17;;
7573;SDS011;3828;48.922;9.116;2022-09-13T11:59:37;0.77;;;0.77;;
7573;SDS011;3828;48.922;9.116;2022-09-13T12:02:12;2.03;;;1.40;;
7573;SDS011;3828;48.922;9.116;2022-09-13T12:04:48;1.73;;;1.00;;
7573;SDS011;3828;48.922;9.116;2022-09-13T12:07:22;0.73;;;0.73;;
7573;SDS011;3828;48.922;9.116;2022-09-13T12:09:56;1.03;;;0.97;;
7573;SDS011;3828;48.922;9.116;2022-09-13T12:12:30;1.47;;;1.20;;
7573;SDS011;3828;48.922;9.116;2022-09-13T12:15:03;0.90;;;0.90;;
7573;SDS011;3828;48.922;9.116;2022-09-13T12:17:35;2.30;;;1.00;;
7573;SDS011;3828;48.922;9.116;2022-09-13T12:20:11;1.07;;;0.80;;
7573;SDS011;3828;48.922;9.116;2022-09-13T12:22:43;1.80;;;1.00;;
7573;SDS011;3828;48.922;9.116;2022-09-13T12:25:16;1.03;;;0.83;;
7573;SDS011;3828;48.922;9.116;2022-09-13T12:27:47;2.23;;;1.07;;
7573;SDS011;3828;48.922;9.116;2022-09-13T12:30:21;1.77;;;1.03;;
7573;SDS011;3828;48.922;9.116;2022-09-13T12:32:49;1.23;;;0.90;;
7573;SDS011;3828;48.922;9.116;2022-09-13T12:35:21;1.07;;;0.90;;
7573;SDS011;3828;48.922;9.116;2022-09-13T12:40:51;1.13;;;0.87;;
7573;SDS011;3828;48.922;9.116;2022-09-13T12:46:32;1.83;;;0.93;;
7573;SDS011;3828;48.922;9.116;2022-09-13T12:49:15;1.10;;;1.00;;
7573;SDS011;3828;48.922;9.116;2022-09-13T12:51:56;1.10;;;1.00;;
7573;SDS011;3828;48.922;9.116;2022-09-13T12:58:16;3.10;;;1.40;;
7573;SDS011;3828;48.922;9.116;2022-09-13T13:01:09;2.53;;;1.00;;
7573;SDS011;3828;48.922;9.116;2022-09-13T13:03:42;1.10;;;0.80;;
7573;SDS011;3828;48.922;9.116;2022-09-13T13:06:18;0.90;;;0.90;;
7573;SDS011;3828;48.922;9.116;2022-09-13T13:08:59;1.00;;;0.90;;
7573;SDS011;3828;48.922;9.116;2022-09-13T13:11:28;0.70;;;0.70;;
7573;SDS011;3828;48.922;9.116;2022-09-13T13:14:05;1.40;;;1.10;;
7573;SDS011;3828;48.922;9.116;2022-09-13T13:16:49;2.78;;;1.20;;
7573;SDS011;3828;48.922;9.116;2022-09-13T13:19:26;0.63;;;0.63;;
7573;SDS011;3828;48.922;9.116;2022-09-13T13:21:55;3.38;;;1.00;;
7573;SDS011;3828;48.922;9.116;2022-09-13T13:24:46;1.00;;;0.90;;
7573;SDS011;3828;48.922;9.116;2022-09-13T13:27:32;0.82;;;0.82;;
7573;SDS011;3828;48.922;9.116;2022-09-13T13:33:17;0.60;;;0.60;;
7573;SDS011;3828;48.922;9.116;2022-09-13T13:35:46;0.80;;;0.70;;
7573;SDS011;3828;48.922;9.116;2022-09-13T13:38:15;0.90;;;0.70;;
7573;SDS011;3828;48.922;9.116;2022-09-13T13:41:06;1.23;;;0.80;;
7573;SDS011;3828;48.922;9.116;2022-09-13T13:43:53;0.68;;;0.68;;
7573;SDS011;3828;48.922;9.116;2022-09-13T13:46:28;0.90;;;0.80;;
7573;SDS011;3828;48.922;9.116;2022-09-13T13:48:56;1.50;;;0.70;;
7573;SDS011;3828;48.922;9.116;2022-09-13T13:55:22;4.17;;;0.80;;
7573;SDS011;3828;48.922;9.116;2022-09-13T13:58:00;1.90;;;0.83;;
7573;SDS011;3828;48.922;9.116;2022-09-13T14:00:29;1.47;;;0.73;;
7573;SDS011;3828;48.922;9.116;2022-09-13T14:03:04;2.20;;;0.80;;
7573;SDS011;3828;48.922;9.116;2022-09-13T14:05:42;0.77;;;0.77;;
7573;SDS011;3828;48.922;9.116;2022-09-13T14:08:25;0.97;;;0.87;;
7573;SDS011;3828;48.922;9.116;2022-09-13T14:11:02;1.47;;;0.83;;
7573;SDS011;3828;48.922;9.116;2022-09-13T14:13:42;1.83;;;0.90;;
7573;SDS011;3828;48.922;9.116;2022-09-13T14:16:19;1.00;;;0.90;;
7573;SDS011;3828;48.922;9.116;2022-09-13T14:19:04;1.13;;;0.70;;
7573;SDS011;3828;48.922;9.116;2022-09-13T14:21:42;0.87;;;0.87;;
7573;SDS011;3828;48.922;9.116;2022-09-13T14:24:15;1.00;;;1.00;;
7573;SDS011;3828;48.922;9.116;2022-09-13T14:26:44;0.87;;;0.60;;
7573;SDS011;3828;48.922;9.116;2022-09-13T14:29:16;1.03;;;0.60;;
7573;SDS011;3828;48.922;9.116;2022-09-13T14:31:45;1.27;;;1.10;;
7573;SDS011;3828;48.922;9.116;2022-09-13T14:34:20;1.67;;;0.90;;
7573;SDS011;3828;48.922;9.116;2022-09-13T14:36:55;1.93;;;1.07;;
7573;SDS011;3828;48.922;9.116;2022-09-13T14:39:23;3.23;;;0.87;;
7573;SDS011;3828;48.922;9.116;2022-09-13T14:41:56;1.63;;;1.10;;
7573;SDS011;3828;48.922;9.116;2022-09-13T14:44:26;1.30;;;0.80;;
7573;SDS011;3828;48.922;9.116;2022-09-13T14:46:54;0.90;;;0.90;;
7573;SDS011;3828;48.922;9.116;2022-09-13T14:49:28;1.57;;;1.00;;
7573;SDS011;3828;48.922;9.116;2022-09-13T14:51:58;1.57;;;0.90;;
7573;SDS011;3828;48.922;9.116;2022-09-13T14:54:30;1.87;;;0.80;;
7573;SDS011;3828;48.922;9.116;2022-09-13T14:57:01;0.63;;;0.63;;
7573;SDS011;3828;48.922;9.116;2022-09-13T14:59:33;1.67;;;1.00;;
7573;SDS011;3828;48.922;9.116;2022-09-13T15:02:12;1.63;;;0.80;;
7573;SDS011;3828;48.922;9.116;2022-09-13T15:04:42;3.33;;;1.00;;
7573;SDS011;3828;48.922;9.116;2022-09-13T15:07:17;1.40;;;1.07;;
7573;SDS011;3828;48.922;9.116;2022-09-13T15:09:48;1.17;;;0.60;;
7573;SDS011;3828;48.922;9.116;2022-09-13T15:12:22;0.70;;;0.60;;
7573;SDS011;3828;48.922;9.116;2022-09-13T15:17:51;1.13;;;0.83;;
7573;SDS011;3828;48.922;9.116;2022-09-13T15:20:19;0.60;;;0.60;;
7573;SDS011;3828;48.922;9.116;2022-09-13T15:22:47;0.60;;;0.50;;
7573;SDS011;3828;48.922;9.116;2022-09-13T15:25:19;0.60;;;0.60;;
7573;SDS011;3828;48.922;9.116;2022-09-13T15:27:48;2.33;;;0.70;;
7573;SDS011;3828;48.922;9.116;2022-09-13T15:30:19;1.33;;;0.63;;
7573;SDS011;3828;48.922;9.116;2022-09-13T15:32:49;2.47;;;0.73;;
7573;SDS011;3828;48.922;9.116;2022-09-13T15:35:41;0.60;;;0.60;;
7573;SDS011;3828;48.922;9.116;2022-09-13T15:38:14;0.63;;;0.63;;
7573;SDS011;3828;48.922;9.116;2022-09-13T15:40:44;0.50;;;0.50;;
7573;SDS011;3828;48.922;9.116;2022-09-13T15:43:12;0.87;;;0.70;;
7573;SDS011;3828;48.922;9.116;2022-09-13T15:45:41;0.67;;;0.67;;
7573;SDS011;3828;48.922;9.116;2022-09-13T15:48:14;0.80;;;0.80;;
7573;SDS011;3828;48.922;9.116;2022-09-13T15:50:53;0.70;;;0.70;;
7573;SDS011;3828;48.922;9.116;2022-09-13T15:53:32;0.93;;;0.70;;
7573;SDS011;3828;48.922;9.116;2022-09-13T15:55:59;1.50;;;1.00;;
7573;SDS011;3828;48.922;9.116;2022-09-13T15:58:29;1.07;;;0.50;;
7573;SDS011;3828;48.922;9.116;2022-09-13T16:01:15;3.13;;;0.90;;
7573;SDS011;3828;48.922;9.116;2022-09-13T16:03:42;1.33;;;0.60;;
7573;SDS011;3828;48.922;9.116;2022-09-13T16:06:09;1.77;;;0.70;;
7573;SDS011;3828;48.922;9.116;2022-09-13T16:08:36;1.97;;;1.20;;
7573;SDS011;3828;48.922;9.116;2022-09-13T16:11:04;3.27;;;1.17;;
7573;SDS011;3828;48.922;9.116;2022-09-13T16:13:31;2.07;;;0.90;;
7573;SDS011;3828;48.922;9.116;2022-09-13T16:15:58;2.50;;;1.00;;
7573;SDS011;3828;48.922;9.116;2022-09-13T16:18:26;3.70;;;1.47;;
7573;SDS011;3828;48.922;9.116;2022-09-13T16:20:53;4.37;;;1.27;;
7573;SDS011;3828;48.922;9.116;2022-09-13T16:23:20;1.10;;;1.00;;